Time;durP1;ratioP1;P1;durP2;ratioP2;P2;SDS_P1;SDS_P2;PMS_P1;PMS_P2;Temp;Humidity;BMP_temperature;BMP_pressure;BME280_temperature;BME280_humidity;BME280_pressure;Samples;Min_cycle;Max_cycle;Signal;HPM_P1;HPM_P2
2022/09/09 00:01:05;;;;;;;12.80;3.42;;;;;;;;;;5053057;28;20029;-72
2022/09/09 00:03:35;;;;;;;13.07;2.88;;;;;;;;;;5052966;28;20106;-73
2022/09/09 00:06:09;;;;;;;13.02;3.42;;;;;;;;;;5053137;28;20426;-71
2022/09/09 00:08:52;;;;;;;16.40;3.05;;;;;;;;;;5053594;28;20025;-71
2022/09/09 00:11:24;;;;;;;10.90;3.25;;;;;;;;;;5053315;28;20017;-72
2022/09/09 00:13:53;;;;;;;13.88;3.15;;;;;;;;;;5053016;28;20025;-71
2022/09/09 00:16:25;;;;;;;11.20;2.65;;;;;;;;;;5052920;28;20025;-73
2022/09/09 00:18:57;;;;;;;13.05;3.80;;;;;;;;;;5052887;28;20026;-71
2022/09/09 00:21:44;;;;;;;11.68;2.90;;;;;;;;;;5052768;28;20025;-73
2022/09/09 00:24:13;;;;;;;12.77;3.58;;;;;;;;;;5053162;28;20500;-72
2022/09/09 00:26:44;;;;;;;9.25;3.08;;;;;;;;;;5052823;28;20017;-71
2022/09/09 00:29:29;;;;;;;8.02;2.60;;;;;;;;;;5034687;28;20070;-73
2022/09/09 00:31:59;;;;;;;13.38;3.70;;;;;;;;;;5053323;28;20489;-73
2022/09/09 00:34:27;;;;;;;11.23;2.67;;;;;;;;;;5053814;28;20025;-73
2022/09/09 00:36:53;;;;;;;9.88;2.55;;;;;;;;;;5056604;28;20388;-73
2022/09/09 00:39:22;;;;;;;10.15;2.53;;;;;;;;;;5056602;28;20032;-73
2022/09/09 00:42:00;;;;;;;10.75;3.08;;;;;;;;;;5057061;28;20112;-72
2022/09/09 00:44:31;;;;;;;8.68;2.28;;;;;;;;;;5056808;28;20021;-72
2022/09/09 00:46:57;;;;;;;7.55;2.00;;;;;;;;;;5056771;28;20021;-72
2022/09/09 00:49:41;;;;;;;8.50;2.80;;;;;;;;;;5056428;28;20452;-73
2022/09/09 00:52:28;;;;;;;10.27;2.42;;;;;;;;;;5056354;28;20028;-73
2022/09/09 00:54:54;;;;;;;9.77;2.15;;;;;;;;;;5056159;28;20108;-74
2022/09/09 00:57:31;;;;;;;9.98;2.70;;;;;;;;;;5056272;28;20052;-71
2022/09/09 01:00:15;;;;;;;11.75;2.70;;;;;;;;;;5056497;28;20029;-72
2022/09/09 01:02:44;;;;;;;12.82;2.55;;;;;;;;;;5056098;28;20493;-72
2022/09/09 01:05:16;;;;;;;9.73;2.45;;;;;;;;;;5056351;28;20025;-72
2022/09/09 01:07:46;;;;;;;7.00;2.42;;;;;;;;;;5056057;28;20043;-73
2022/09/09 01:10:18;;;;;;;8.82;2.25;;;;;;;;;;5056034;28;20025;-73
2022/09/09 01:12:47;;;;;;;16.30;3.05;;;;;;;;;;5056307;28;20032;-73
2022/09/09 01:15:17;;;;;;;12.07;2.70;;;;;;;;;;5055893;28;20068;-73
2022/09/09 01:17:57;;;;;;;9.10;2.67;;;;;;;;;;5056502;28;20108;-73
2022/09/09 01:20:26;;;;;;;10.43;2.90;;;;;;;;;;5056165;28;20366;-72
2022/09/09 01:23:05;;;;;;;14.88;2.65;;;;;;;;;;5055978;28;20021;-72
2022/09/09 01:25:49;;;;;;;10.48;3.58;;;;;;;;;;5056060;28;20021;-72
2022/09/09 01:28:21;;;;;;;9.77;2.33;;;;;;;;;;5055953;28;20048;-73
2022/09/09 01:30:48;;;;;;;15.70;2.78;;;;;;;;;;5056210;28;20021;-72
2022/09/09 01:33:18;;;;;;;10.57;2.30;;;;;;;;;;5056367;28;20099;-72
2022/09/09 01:35:56;;;;;;;8.93;2.83;;;;;;;;;;5055862;28;20035;-72
2022/09/09 01:38:22;;;;;;;7.25;2.53;;;;;;;;;;5056046;28;20025;-72
2022/09/09 01:40:49;;;;;;;6.05;2.50;;;;;;;;;;5055383;28;20389;-72
2022/09/09 01:43:15;;;;;;;8.85;2.80;;;;;;;;;;5055311;28;20029;-74
2022/09/09 01:45:43;;;;;;;6.72;2.50;;;;;;;;;;5055133;28;20112;-72
2022/09/09 01:48:09;;;;;;;9.13;2.40;;;;;;;;;;5055283;28;20021;-72
2022/09/09 01:50:35;;;;;;;14.48;2.97;;;;;;;;;;5055501;28;20099;-73
2022/09/09 01:53:02;;;;;;;8.48;2.58;;;;;;;;;;5055203;28;20489;-73
2022/09/09 01:58:34;;;;;;;9.18;2.83;;;;;;;;;;5054956;28;20051;-73
2022/09/09 02:01:05;;;;;;;7.80;2.03;;;;;;;;;;5055092;28;20057;-71
2022/09/09 02:03:35;;;;;;;8.73;2.45;;;;;;;;;;5055255;28;20556;-73
2022/09/09 02:06:10;;;;;;;6.35;2.30;;;;;;;;;;5055223;28;20104;-72
2022/09/09 02:08:42;;;;;;;9.50;2.13;;;;;;;;;;5055256;28;20021;-72
2022/09/09 02:11:12;;;;;;;13.30;3.20;;;;;;;;;;5055202;28;20048;-73
2022/09/09 02:13:39;;;;;;;9.27;2.42;;;;;;;;;;5054813;28;20032;-73
2022/09/09 02:16:08;;;;;;;12.18;2.08;;;;;;;;;;5055047;28;20061;-72
2022/09/09 02:18:47;;;;;;;8.30;2.28;;;;;;;;;;5055302;28;20032;-73
2022/09/09 02:21:14;;;;;;;8.50;1.80;;;;;;;;;;5054970;28;20385;-72
2022/09/09 02:23:41;;;;;;;9.40;2.30;;;;;;;;;;5054615;28;20108;-71
2022/09/09 02:26:08;;;;;;;11.13;2.72;;;;;;;;;;5054557;28;20033;-73
2022/09/09 02:28:35;;;;;;;13.27;2.53;;;;;;;;;;5054836;28;20353;-73
2022/09/09 02:31:01;;;;;;;7.75;2.10;;;;;;;;;;5054561;28;20087;-73
2022/09/09 02:33:29;;;;;;;8.73;2.50;;;;;;;;;;5055307;28;20024;-72
2022/09/09 02:36:01;;;;;;;8.88;2.67;;;;;;;;;;5054648;28;20485;-72
2022/09/09 02:38:29;;;;;;;9.90;3.22;;;;;;;;;;5054677;28;20029;-73
2022/09/09 02:40:55;;;;;;;7.13;2.22;;;;;;;;;;5054542;28;20028;-73
2022/09/09 02:43:21;;;;;;;7.78;2.30;;;;;;;;;;5036250;28;20029;-73
2022/09/09 02:46:03;;;;;;;12.02;2.88;;;;;;;;;;5036323;28;20017;-73
2022/09/09 02:48:41;;;;;;;6.97;1.88;;;;;;;;;;5054715;28;20078;-73
2022/09/09 02:51:13;;;;;;;4.90;2.03;;;;;;;;;;5054650;28;20074;-72
2022/09/09 02:53:51;;;;;;;17.58;3.10;;;;;;;;;;5054576;28;20033;-73
2022/09/09 02:56:19;;;;;;;11.05;2.40;;;;;;;;;;5054299;28;20501;-73
2022/09/09 02:58:46;;;;;;;10.38;2.70;;;;;;;;;;5053179;28;20466;-73
2022/09/09 03:01:12;;;;;;;10.65;2.80;;;;;;;;;;5054187;28;20016;-72
2022/09/09 03:03:39;;;;;;;6.97;2.53;;;;;;;;;;5053816;28;20033;-71
2022/09/09 03:06:05;;;;;;;7.78;2.38;;;;;;;;;;5053781;28;20024;-72
2022/09/09 03:08:31;;;;;;;6.85;2.55;;;;;;;;;;5054069;28;20025;-72
2022/09/09 03:11:01;;;;;;;10.55;2.55;;;;;;;;;;5054001;28;20495;-71
2022/09/09 03:13:27;;;;;;;10.68;2.40;;;;;;;;;;5053963;28;20028;-73
2022/09/09 03:15:53;;;;;;;8.35;2.10;;;;;;;;;;5053649;28;20025;-73
2022/09/09 03:18:19;;;;;;;11.48;2.47;;;;;;;;;;5035662;28;20378;-73
2022/09/09 03:20:50;;;;;;;12.25;2.90;;;;;;;;;;5053580;28;20082;-72
2022/09/09 03:23:16;;;;;;;10.48;2.50;;;;;;;;;;5054028;28;20472;-73
2022/09/09 03:25:52;;;;;;;9.40;2.65;;;;;;;;;;5053526;28;20017;-72
2022/09/09 03:28:18;;;;;;;5.40;2.20;;;;;;;;;;5054067;28;20500;-73
2022/09/09 03:30:44;;;;;;;7.32;2.17;;;;;;;;;;5035527;28;20067;-72
2022/09/09 03:33:10;;;;;;;11.82;2.65;;;;;;;;;;5053937;28;20065;-72
2022/09/09 03:35:36;;;;;;;10.88;1.98;;;;;;;;;;5053391;28;20032;-72
2022/09/09 03:38:02;;;;;;;6.63;2.30;;;;;;;;;;5053305;28;20037;-72
2022/09/09 03:40:28;;;;;;;11.68;2.42;;;;;;;;;;5053272;28;20025;-73
2022/09/09 03:42:54;;;;;;;10.43;2.75;;;;;;;;;;5053252;28;20025;-73
2022/09/09 03:45:20;;;;;;;15.00;2.95;;;;;;;;;;5053202;28;20122;-73
2022/09/09 03:47:46;;;;;;;13.07;3.15;;;;;;;;;;5053380;28;20024;-72
2022/09/09 03:50:12;;;;;;;13.50;2.80;;;;;;;;;;5053485;28;20044;-72
2022/09/09 03:52:40;;;;;;;10.40;3.22;;;;;;;;;;5053181;28;20163;-71
2022/09/09 03:55:06;;;;;;;9.02;2.45;;;;;;;;;;5053111;28;20020;-73
2022/09/09 03:57:34;;;;;;;15.73;3.08;;;;;;;;;;5052927;28;20053;-73
2022/09/09 04:00:01;;;;;;;11.38;3.00;;;;;;;;;;5053108;28;20025;-73
2022/09/09 04:02:27;;;;;;;9.38;2.88;;;;;;;;;;5035172;28;20087;-73
2022/09/09 04:04:53;;;;;;;8.85;2.53;;;;;;;;;;5053019;28;20473;-72
2022/09/09 04:07:19;;;;;;;6.68;1.90;;;;;;;;;;5053233;28;20032;-71
2022/09/09 04:09:45;;;;;;;8.90;2.58;;;;;;;;;;5054377;28;20389;-73
2022/09/09 04:12:13;;;;;;;6.60;2.20;;;;;;;;;;5057114;28;20103;-72
2022/09/09 04:14:39;;;;;;;10.88;2.88;;;;;;;;;;5057047;28;20021;-71
2022/09/09 04:17:06;;;;;;;8.13;2.88;;;;;;;;;;5057547;28;20114;-72
2022/09/09 04:19:32;;;;;;;8.20;2.38;;;;;;;;;;5056988;28;20027;-71
2022/09/09 04:21:59;;;;;;;9.15;2.60;;;;;;;;;;5057391;28;20064;-72
2022/09/09 04:24:28;;;;;;;13.90;2.85;;;;;;;;;;5056906;28;20090;-71
2022/09/09 04:26:55;;;;;;;10.48;2.53;;;;;;;;;;5057157;28;20032;-72
2022/09/09 04:29:21;;;;;;;12.55;2.47;;;;;;;;;;5038829;28;20496;-73
2022/09/09 04:31:47;;;;;;;5.78;2.20;;;;;;;;;;5057051;28;20473;-71
2022/09/09 04:34:13;;;;;;;8.40;2.42;;;;;;;;;;5057242;28;20443;-73
2022/09/09 04:36:40;;;;;;;13.88;2.92;;;;;;;;;;5056654;28;20097;-73
2022/09/09 04:39:06;;;;;;;11.50;2.88;;;;;;;;;;5038714;28;20025;-73
2022/09/09 04:41:32;;;;;;;15.88;3.92;;;;;;;;;;5056485;28;20033;-73
2022/09/09 04:43:59;;;;;;;10.70;3.58;;;;;;;;;;5056503;28;20031;-72
2022/09/09 04:46:25;;;;;;;8.82;2.33;;;;;;;;;;5056787;28;20128;-72
2022/09/09 04:48:52;;;;;;;10.75;3.53;;;;;;;;;;5056753;28;20020;-72
2022/09/09 04:51:18;;;;;;;12.18;2.95;;;;;;;;;;5056429;28;20472;-72
2022/09/09 04:53:45;;;;;;;13.85;2.97;;;;;;;;;;5056311;28;20029;-73
2022/09/09 04:56:12;;;;;;;10.18;3.08;;;;;;;;;;5056591;28;20484;-71
2022/09/09 04:58:39;;;;;;;14.35;3.05;;;;;;;;;;5056070;28;20053;-72
2022/09/09 05:01:09;;;;;;;9.48;2.50;;;;;;;;;;5056205;28;20102;-72
2022/09/09 05:03:35;;;;;;;13.50;2.38;;;;;;;;;;5056102;28;20029;-71
2022/09/09 05:06:08;;;;;;;14.35;2.72;;;;;;;;;;5056070;28;20456;-72
2022/09/09 05:08:34;;;;;;;11.80;2.95;;;;;;;;;;5056362;28;20024;-73
2022/09/09 05:11:00;;;;;;;16.63;3.17;;;;;;;;;;5056030;28;20082;-73
2022/09/09 05:13:27;;;;;;;12.45;2.70;;;;;;;;;;5055964;28;20028;-72
2022/09/09 05:15:54;;;;;;;10.20;3.20;;;;;;;;;;5055948;28;20035;-72
2022/09/09 05:18:22;;;;;;;10.07;2.50;;;;;;;;;;5056154;28;20058;-73
2022/09/09 05:20:48;;;;;;;12.02;3.08;;;;;;;;;;5055297;28;20025;-72
2022/09/09 05:23:14;;;;;;;10.77;3.10;;;;;;;;;;5055723;28;20029;-73
2022/09/09 05:25:41;;;;;;;11.95;2.95;;;;;;;;;;5056029;28;20032;-73
2022/09/09 05:28:08;;;;;;;10.32;3.22;;;;;;;;;;5037796;28;20116;-72
2022/09/09 05:30:34;;;;;;;17.77;3.17;;;;;;;;;;5037504;28;20048;-71
2022/09/09 05:33:00;;;;;;;8.75;3.20;;;;;;;;;;5056404;28;20028;-73
2022/09/09 05:35:27;;;;;;;11.40;2.60;;;;;;;;;;5055822;28;20029;-72
2022/09/09 05:37:53;;;;;;;12.93;3.17;;;;;;;;;;5055794;28;20025;-72
2022/09/09 05:40:21;;;;;;;10.65;3.13;;;;;;;;;;5055708;28;20039;-73
2022/09/09 05:42:47;;;;;;;9.95;2.63;;;;;;;;;;5055368;28;20021;-72
2022/09/09 05:45:13;;;;;;;18.08;3.83;;;;;;;;;;5055607;28;20036;-72
2022/09/09 05:47:39;;;;;;;13.55;3.25;;;;;;;;;;5055556;28;20029;-73
2022/09/09 05:50:05;;;;;;;13.98;3.00;;;;;;;;;;5055294;28;20079;-72
2022/09/09 05:52:32;;;;;;;14.07;2.60;;;;;;;;;;5055226;28;20036;-73
2022/09/09 05:54:59;;;;;;;9.60;3.05;;;;;;;;;;5055180;28;20500;-72
2022/09/09 05:57:25;;;;;;;13.25;3.05;;;;;;;;;;5054966;28;20071;-72
2022/09/09 05:59:51;;;;;;;13.48;3.92;;;;;;;;;;5055438;28;20104;-73
2022/09/09 06:02:17;;;;;;;8.70;3.15;;;;;;;;;;5037111;28;20104;-72
2022/09/09 06:04:43;;;;;;;14.68;2.90;;;;;;;;;;5055058;28;20025;-73
2022/09/09 06:07:09;;;;;;;16.13;4.00;;;;;;;;;;5054875;28;20021;-72
2022/09/09 06:09:35;;;;;;;11.70;2.90;;;;;;;;;;5055180;28;20102;-73
2022/09/09 06:12:01;;;;;;;12.13;3.25;;;;;;;;;;5055133;28;20370;-73
2022/09/09 06:14:27;;;;;;;8.48;2.58;;;;;;;;;;5055088;28;20483;-72
2022/09/09 06:16:53;;;;;;;15.23;3.03;;;;;;;;;;5054815;28;20078;-73
2022/09/09 06:19:20;;;;;;;11.02;3.00;;;;;;;;;;5055024;28;20029;-72
2022/09/09 06:21:47;;;;;;;11.52;3.28;;;;;;;;;;5054914;28;20032;-72
2022/09/09 06:24:17;;;;;;;6.43;2.05;;;;;;;;;;5054739;28;20021;-73
2022/09/09 06:26:43;;;;;;;10.40;2.88;;;;;;;;;;5054663;28;20017;-73
2022/09/09 06:29:10;;;;;;;12.18;2.72;;;;;;;;;;5054562;28;20028;-72
2022/09/09 06:31:37;;;;;;;10.93;2.70;;;;;;;;;;5054175;28;20100;-72
2022/09/09 06:34:07;;;;;;;16.40;3.33;;;;;;;;;;5054623;28;20029;-74
2022/09/09 06:36:35;;;;;;;9.85;2.50;;;;;;;;;;5054410;28;20489;-72
2022/09/09 06:39:01;;;;;;;9.77;2.72;;;;;;;;;;5054369;28;20452;-71
2022/09/09 06:41:28;;;;;;;7.60;2.70;;;;;;;;;;5054467;28;20044;-74
2022/09/09 06:43:55;;;;;;;9.65;2.70;;;;;;;;;;5054256;28;20082;-71
2022/09/09 06:46:28;;;;;;;10.68;2.80;;;;;;;;;;5054260;28;20041;-71
2022/09/09 06:48:55;;;;;;;13.13;3.15;;;;;;;;;;5054752;28;20091;-71
2022/09/09 06:51:22;;;;;;;6.53;2.38;;;;;;;;;;5054076;28;20045;-72
2022/09/09 06:53:50;;;;;;;12.32;2.47;;;;;;;;;;5054332;28;20389;-71
2022/09/09 06:56:22;;;;;;;12.23;2.80;;;;;;;;;;5053983;28;20029;-71
2022/09/09 06:58:48;;;;;;;8.73;2.22;;;;;;;;;;5053894;28;20562;-71
2022/09/09 07:01:19;;;;;;;4.85;2.38;;;;;;;;;;5053962;28;20556;-71
2022/09/09 07:03:45;;;;;;;;;;;;;;;;;;5054516;28;20087;-70
2022/09/09 07:06:24;;;;;;;5.22;1.88;;;;;;;;;;5053779;28;19904;-70
2022/09/09 07:08:51;;;;;;;10.02;2.35;;;;;;;;;;5054133;28;20055;-71
2022/09/09 07:11:17;;;;;;;8.75;3.40;;;;;;;;;;5053753;28;20032;-71
2022/09/09 07:13:43;;;;;;;12.90;3.08;;;;;;;;;;5053776;28;20021;-70
2022/09/09 07:16:13;;;;;;;11.00;2.45;;;;;;;;;;5053968;28;20025;-72
2022/09/09 07:18:40;;;;;;;9.98;2.25;;;;;;;;;;5054236;28;20380;-72
2022/09/09 07:21:06;;;;;;;16.27;2.83;;;;;;;;;;5053576;28;20029;-71
2022/09/09 07:23:33;;;;;;;10.05;2.75;;;;;;;;;;5053510;28;20098;-71
2022/09/09 07:25:59;;;;;;;12.88;3.03;;;;;;;;;;5053475;28;20052;-71
2022/09/09 07:28:27;;;;;;;12.38;2.78;;;;;;;;;;5053973;28;20029;-71
2022/09/09 07:30:56;;;;;;;14.02;3.08;;;;;;;;;;5053445;28;20024;-71
2022/09/09 07:33:23;;;;;;;14.02;2.90;;;;;;;;;;5053959;28;20081;-71
2022/09/09 07:35:50;;;;;;;12.10;2.78;;;;;;;;;;5053384;28;20029;-72
2022/09/09 07:38:16;;;;;;;9.02;3.08;;;;;;;;;;5053418;28;20555;-71
2022/09/09 07:40:42;;;;;;;9.55;2.85;;;;;;;;;;5053633;28;20097;-72
2022/09/09 07:43:08;;;;;;;10.32;3.75;;;;;;;;;;5053546;28;20033;-71
2022/09/09 07:45:35;;;;;;;19.98;3.80;;;;;;;;;;5053550;28;20021;-71
2022/09/09 07:48:02;;;;;;;7.80;2.50;;;;;;;;;;5053217;28;20025;-71
2022/09/09 07:50:28;;;;;;;12.85;3.17;;;;;;;;;;5053198;28;20053;-71
2022/09/09 07:52:54;;;;;;;7.47;2.38;;;;;;;;;;5053127;28;20470;-71
2022/09/09 07:55:25;;;;;;;15.10;3.28;;;;;;;;;;5053168;28;20493;-71
2022/09/09 07:57:51;;;;;;;9.88;3.00;;;;;;;;;;5052969;28;20052;-71
2022/09/09 08:00:18;;;;;;;13.45;2.97;;;;;;;;;;5053385;28;20083;-71
2022/09/09 08:02:46;;;;;;;10.27;2.80;;;;;;;;;;5053275;28;20389;-71
2022/09/09 08:05:12;;;;;;;11.65;2.53;;;;;;;;;;5052972;28;20086;-72
2022/09/09 08:07:38;;;;;;;7.53;2.83;;;;;;;;;;5052997;28;20025;-71
2022/09/09 08:10:06;;;;;;;14.63;3.60;;;;;;;;;;5052979;28;20018;-71
2022/09/09 08:12:32;;;;;;;12.45;2.53;;;;;;;;;;5053257;28;20025;-72
2022/09/09 08:14:58;;;;;;;9.10;2.60;;;;;;;;;;5052965;28;20021;-71
2022/09/09 08:17:24;;;;;;;12.55;2.97;;;;;;;;;;5053238;28;20120;-71
2022/09/09 08:19:50;;;;;;;11.60;2.67;;;;;;;;;;5035085;28;20397;-72
2022/09/09 08:22:16;;;;;;;12.43;3.03;;;;;;;;;;5052832;28;20033;-73
2022/09/09 08:24:42;;;;;;;10.38;3.13;;;;;;;;;;5053187;28;20063;-72
2022/09/09 08:27:09;;;;;;;8.32;2.10;;;;;;;;;;5052863;28;20029;-74
2022/09/09 08:29:37;;;;;;;11.73;2.85;;;;;;;;;;5052878;28;20590;-74
2022/09/09 08:32:04;;;;;;;9.07;2.35;;;;;;;;;;5052829;28;20159;-72
2022/09/09 08:34:31;;;;;;;8.05;2.65;;;;;;;;;;5053578;28;20017;-71
2022/09/09 08:36:57;;;;;;;10.70;2.58;;;;;;;;;;5053007;28;20021;-71
2022/09/09 08:39:24;;;;;;;10.07;3.20;;;;;;;;;;5052800;28;20095;-74
2022/09/09 08:42:00;;;;;;;12.68;2.83;;;;;;;;;;5052865;28;20025;-73
2022/09/09 08:44:32;;;;;;;10.02;2.50;;;;;;;;;;5053205;28;20047;-70
2022/09/09 08:47:25;;;;;;;9.85;2.75;;;;;;;;;;5034807;28;20393;-70
2022/09/09 08:50:14;;;;;;;12.10;2.90;;;;;;;;;;5053224;28;20023;-69
2022/09/09 08:53:05;;;;;;;15.60;2.92;;;;;;;;;;5039920;28;20041;-70
2022/09/09 08:55:38;;;;;;;10.13;3.13;;;;;;;;;;5041703;28;20036;-70
2022/09/09 08:58:12;;;;;;;7.20;2.25;;;;;;;;;;5056098;28;20049;-71
2022/09/09 09:01:01;;;;;;;10.95;2.50;;;;;;;;;;5056536;28;20465;-71
2022/09/09 09:03:42;;;;;;;8.23;2.53;;;;;;;;;;5010253;28;20045;-71
2022/09/09 09:06:26;;;;;;;12.80;3.15;;;;;;;;;;5056225;28;20503;-70
2022/09/09 09:09:10;;;;;;;10.10;2.15;;;;;;;;;;5056717;28;20025;-72
2022/09/09 09:11:38;;;;;;;6.75;2.50;;;;;;;;;;5056585;28;20071;-72
2022/09/09 09:14:09;;;;;;;11.60;2.53;;;;;;;;;;5056551;28;20151;-71
2022/09/09 09:16:42;;;;;;;7.32;2.42;;;;;;;;;;5056529;28;20029;-69
2022/09/09 09:19:14;;;;;;;7.97;2.00;;;;;;;;;;5055924;28;20057;-72
2022/09/09 09:21:41;;;;;;;10.50;2.33;;;;;;;;;;5056402;28;20377;-71
2022/09/09 09:24:11;;;;;;;6.32;2.42;;;;;;;;;;5037670;28;20029;-70
2022/09/09 09:26:37;;;;;;;11.02;2.20;;;;;;;;;;5056103;28;20094;-71
2022/09/09 09:29:18;;;;;;;11.35;2.70;;;;;;;;;;5055979;28;20021;-70
2022/09/09 09:31:50;;;;;;;10.73;2.50;;;;;;;;;;5055677;28;20021;-72
2022/09/09 09:34:17;;;;;;;8.50;2.30;;;;;;;;;;5056222;28;20028;-71
2022/09/09 09:36:46;;;;;;;12.75;2.65;;;;;;;;;;5056128;28;20022;-72
2022/09/09 09:39:23;;;;;;;8.82;2.50;;;;;;;;;;5055596;28;20104;-71
2022/09/09 09:41:49;;;;;;;7.43;1.70;;;;;;;;;;5055451;28;20017;-72
2022/09/09 09:44:26;;;;;;;8.13;2.17;;;;;;;;;;5055651;28;20424;-71
2022/09/09 09:46:53;;;;;;;9.20;2.55;;;;;;;;;;5055939;28;20021;-71
2022/09/09 09:49:19;;;;;;;9.95;2.45;;;;;;;;;;5055644;28;20424;-72
2022/09/09 09:51:46;;;;;;;7.90;2.88;;;;;;;;;;5055288;28;20410;-71
2022/09/09 09:54:16;;;;;;;10.40;2.50;;;;;;;;;;5055225;28;20025;-71
2022/09/09 09:56:42;;;;;;;11.10;2.30;;;;;;;;;;5055240;28;20024;-72
2022/09/09 09:59:20;;;;;;;8.02;1.92;;;;;;;;;;5054792;28;20045;-72
2022/09/09 10:01:46;;;;;;;8.60;2.45;;;;;;;;;;5055037;28;20028;-72
2022/09/09 10:04:18;;;;;;;5.13;1.70;;;;;;;;;;5037185;28;20107;-72
2022/09/09 10:06:44;;;;;;;4.30;1.48;;;;;;;;;;5054942;28;20435;-72
2022/09/09 10:09:33;;;;;;;7.47;2.30;;;;;;;;;;5055003;28;20374;-72
2022/09/09 10:12:03;;;;;;;7.45;2.10;;;;;;;;;;5055479;28;20100;-71
2022/09/09 10:14:29;;;;;;;;;;;;;;;;;;5055597;28;20048;-72
2022/09/09 10:17:11;;;;;;;5.93;1.75;;;;;;;;;;5055146;28;20404;-71
2022/09/09 10:19:38;;;;;;;6.65;1.90;;;;;;;;;;5054789;28;20053;-71
2022/09/09 10:22:04;;;;;;;7.97;2.20;;;;;;;;;;5054909;28;20029;-72
2022/09/09 10:24:33;;;;;;;5.93;1.50;;;;;;;;;;5054753;28;20055;-72
2022/09/09 10:27:02;;;;;;;7.82;1.65;;;;;;;;;;5055153;28;20036;-72
2022/09/09 10:29:43;;;;;;;9.02;2.35;;;;;;;;;;5054870;28;20021;-71
2022/09/09 10:32:16;;;;;;;7.28;1.70;;;;;;;;;;5054842;28;20074;-72
2022/09/09 10:35:01;;;;;;;5.22;1.63;;;;;;;;;;5055489;28;20044;-71
2022/09/09 10:37:32;;;;;;;7.20;1.63;;;;;;;;;;5054982;28;20057;-70
2022/09/09 10:40:18;;;;;;;5.47;1.92;;;;;;;;;;5054642;28;20404;-71
2022/09/09 10:42:44;;;;;;;8.88;2.00;;;;;;;;;;5054515;28;20025;-71
2022/09/09 10:45:18;;;;;;;7.57;2.15;;;;;;;;;;5054506;28;20024;-71
2022/09/09 10:47:44;;;;;;;7.57;1.80;;;;;;;;;;5054236;28;20021;-71
2022/09/09 10:50:13;;;;;;;7.13;1.80;;;;;;;;;;5054202;28;20025;-71
2022/09/09 10:52:57;;;;;;;8.25;2.00;;;;;;;;;;5054375;28;20033;-70
2022/09/09 10:55:30;;;;;;;7.90;1.90;;;;;;;;;;5054646;28;20075;-71
2022/09/09 10:57:58;;;;;;;7.78;1.70;;;;;;;;;;5053703;28;20059;-71
2022/09/09 11:00:36;;;;;;;7.22;2.13;;;;;;;;;;5054005;28;20103;-72
2022/09/09 11:03:04;;;;;;;6.90;2.22;;;;;;;;;;5053898;28;20115;-71
2022/09/09 11:05:45;;;;;;;6.53;1.65;;;;;;;;;;5053750;28;20045;-72
2022/09/09 11:08:15;;;;;;;5.93;1.70;;;;;;;;;;5054157;28;20017;-72
2022/09/09 11:10:45;;;;;;;7.03;1.58;;;;;;;;;;5054699;28;20044;-72
2022/09/09 11:13:31;;;;;;;3.80;1.70;;;;;;;;;;5053709;28;20028;-72
2022/09/09 11:16:00;;;;;;;6.80;2.00;;;;;;;;;;5035821;28;20075;-71
2022/09/09 11:18:29;;;;;;;4.55;2.15;;;;;;;;;;5053455;28;20027;-72
2022/09/09 11:20:59;;;;;;;5.47;1.95;;;;;;;;;;5053862;28;20033;-71
2022/09/09 11:23:25;;;;;;;;;;;;;;;;;;5054259;28;20033;-71
2022/09/09 11:25:55;;;;;;;6.28;1.77;;;;;;;;;;5053850;28;19931;-70
2022/09/09 11:28:22;;;;;;;9.55;2.00;;;;;;;;;;5054119;28;20017;-72
2022/09/09 11:30:48;;;;;;;6.15;2.28;;;;;;;;;;5053773;28;20021;-72
2022/09/09 11:33:14;;;;;;;4.63;1.60;;;;;;;;;;5053457;28;20033;-71
2022/09/09 11:36:00;;;;;;;8.82;2.15;;;;;;;;;;5054161;28;20033;-71
2022/09/09 11:38:27;;;;;;;5.30;1.98;;;;;;;;;;5053375;28;20021;-72
2022/09/09 11:40:59;;;;;;;4.50;1.65;;;;;;;;;;5053386;28;20032;-71
2022/09/09 11:43:27;;;;;;;4.28;1.60;;;;;;;;;;5035281;28;20056;-72
2022/09/09 11:45:57;;;;;;;6.70;2.30;;;;;;;;;;5053530;28;20020;-71
2022/09/09 11:48:45;;;;;;;6.80;1.60;;;;;;;;;;5053517;28;20025;-71
2022/09/09 11:51:13;;;;;;;5.25;1.67;;;;;;;;;;5053789;28;20017;-71
2022/09/09 11:53:50;;;;;;;4.72;1.30;;;;;;;;;;5053164;28;20060;-72
2022/09/09 11:56:26;;;;;;;8.23;2.45;;;;;;;;;;5053426;28;20036;-71
2022/09/09 11:59:01;;;;;;;4.65;1.77;;;;;;;;;;5059860;28;20077;-71
2022/09/09 12:01:28;;;;;;;4.07;1.90;;;;;;;;;;5071647;28;20055;-72
2022/09/09 12:04:06;;;;;;;6.32;1.80;;;;;;;;;;5073099;28;20465;-72
2022/09/09 12:06:33;;;;;;;4.80;1.40;;;;;;;;;;5073057;28;20074;-72
2022/09/09 12:09:10;;;;;;;4.35;1.45;;;;;;;;;;5073391;28;20020;-71
2022/09/09 12:11:37;;;;;;;3.47;1.60;;;;;;;;;;5073710;28;20515;-71
2022/09/09 12:14:03;;;;;;;6.25;1.52;;;;;;;;;;5073093;28;20048;-71
2022/09/09 12:16:32;;;;;;;5.63;1.75;;;;;;;;;;5073291;28;20108;-71
2022/09/09 12:19:05;;;;;;;3.83;1.45;;;;;;;;;;5073305;28;20024;-71
2022/09/09 12:21:38;;;;;;;6.03;1.73;;;;;;;;;;5073547;28;20376;-72
2022/09/09 12:24:09;;;;;;;8.13;2.03;;;;;;;;;;5072956;28;20035;-72
2022/09/09 12:26:35;;;;;;;9.40;1.98;;;;;;;;;;5073263;28;20047;-72
2022/09/09 12:29:01;;;;;;;6.07;1.40;;;;;;;;;;5072914;28;20056;-72
2022/09/09 12:31:31;;;;;;;6.30;1.80;;;;;;;;;;5075356;28;20469;-72
2022/09/09 12:34:03;;;;;;;7.03;1.52;;;;;;;;;;5077731;28;20099;-71
2022/09/09 12:36:33;;;;;;;4.68;1.48;;;;;;;;;;5077056;28;20046;-72
2022/09/09 12:39:10;;;;;;;8.30;2.00;;;;;;;;;;5076641;28;20024;-71
2022/09/09 12:41:36;;;;;;;6.60;1.67;;;;;;;;;;5076947;28;20103;-72
2022/09/09 12:44:07;;;;;;;4.72;1.50;;;;;;;;;;5076513;28;20085;-73
2022/09/09 12:46:36;;;;;;;5.00;1.50;;;;;;;;;;5077139;28;20020;-72
2022/09/09 12:49:04;;;;;;;4.38;1.67;;;;;;;;;;5076501;28;20024;-71
2022/09/09 12:51:31;;;;;;;7.07;1.60;;;;;;;;;;5076486;28;20021;-71
2022/09/09 12:53:58;;;;;;;6.53;1.90;;;;;;;;;;5076660;28;20138;-71
2022/09/09 12:56:26;;;;;;;4.28;1.27;;;;;;;;;;5076346;28;20024;-71
2022/09/09 12:58:53;;;;;;;4.60;1.60;;;;;;;;;;5062023;28;20052;-70
2022/09/09 13:01:24;;;;;;;3.53;1.40;;;;;;;;;;5056539;28;20025;-72
2022/09/09 13:03:50;;;;;;;5.60;1.50;;;;;;;;;;5056179;28;20061;-72
2022/09/09 13:06:22;;;;;;;7.05;1.58;;;;;;;;;;5056106;28;20096;-71
2022/09/09 13:08:49;;;;;;;6.13;1.60;;;;;;;;;;5056136;28;20017;-72
2022/09/09 13:11:17;;;;;;;6.38;1.38;;;;;;;;;;5056081;28;20485;-72
2022/09/09 13:13:49;;;;;;;6.55;2.00;;;;;;;;;;5056000;28;20481;-72
2022/09/09 13:16:20;;;;;;;4.95;1.70;;;;;;;;;;5056245;28;20036;-72
2022/09/09 13:18:46;;;;;;;3.72;1.40;;;;;;;;;;5055922;28;20032;-72
2022/09/09 13:21:14;;;;;;;6.15;1.33;;;;;;;;;;5056170;28;20053;-72
2022/09/09 13:23:40;;;;;;;5.57;1.65;;;;;;;;;;5055771;28;20108;-71
2022/09/09 13:26:21;;;;;;;5.60;1.70;;;;;;;;;;5056086;28;20544;-71
2022/09/09 13:28:47;;;;;;;5.70;1.48;;;;;;;;;;5056083;28;20419;-71
2022/09/09 13:31:29;;;;;;;4.47;1.58;;;;;;;;;;5055964;28;20025;-71
2022/09/09 13:33:56;;;;;;;4.10;1.67;;;;;;;;;;5055616;28;20044;-71
2022/09/09 13:36:31;;;;;;;5.57;2.13;;;;;;;;;;5056131;28;20060;-71
2022/09/09 13:38:59;;;;;;;3.60;1.55;;;;;;;;;;5055870;28;20028;-72
2022/09/09 13:41:36;;;;;;;3.40;1.30;;;;;;;;;;5055124;28;20053;-71
2022/09/09 13:44:03;;;;;;;4.03;1.10;;;;;;;;;;5055762;28;20461;-72
2022/09/09 13:46:35;;;;;;;8.60;1.73;;;;;;;;;;5055422;28;20530;-72
2022/09/09 13:49:02;;;;;;;3.85;1.50;;;;;;;;;;5055680;28;20033;-71
2022/09/09 13:51:31;;;;;;;4.78;1.63;;;;;;;;;;5055159;28;20154;-73
2022/09/09 13:53:57;;;;;;;3.03;1.23;;;;;;;;;;5055244;28;20025;-72
2022/09/09 13:56:23;;;;;;;2.97;0.98;;;;;;;;;;5055299;28;20025;-73
2022/09/09 13:58:49;;;;;;;3.97;0.98;;;;;;;;;;5055035;28;20060;-73
2022/09/09 14:01:15;;;;;;;3.13;1.33;;;;;;;;;;5055402;28;20033;-73
2022/09/09 14:03:42;;;;;;;4.85;1.83;;;;;;;;;;5055021;28;20032;-73
2022/09/09 14:06:08;;;;;;;4.20;1.77;;;;;;;;;;5054954;28;20020;-74
2022/09/09 14:08:36;;;;;;;4.18;1.48;;;;;;;;;;5055188;28;20397;-72
2022/09/09 14:11:03;;;;;;;3.17;1.23;;;;;;;;;;5054991;28;20018;-77
2022/09/09 14:13:29;;;;;;;2.63;0.90;;;;;;;;;;5054921;28;20480;-73
2022/09/09 14:15:56;;;;;;;3.28;1.13;;;;;;;;;;5054856;28;20051;-73
2022/09/09 14:18:23;;;;;;;4.63;1.40;;;;;;;;;;5055115;28;20394;-73
2022/09/09 14:20:50;;;;;;;7.20;1.60;;;;;;;;;;5054804;28;20032;-73
2022/09/09 14:23:16;;;;;;;5.00;1.38;;;;;;;;;;5055086;28;20029;-75
2022/09/09 14:25:43;;;;;;;2.55;1.00;;;;;;;;;;5055252;28;20052;-75
2022/09/09 14:28:10;;;;;;;4.18;1.30;;;;;;;;;;5057090;28;20024;-73
2022/09/09 14:30:37;;;;;;;4.65;1.45;;;;;;;;;;5054600;28;20021;-74
2022/09/09 14:33:04;;;;;;;4.82;1.40;;;;;;;;;;5054888;28;20037;-74
2022/09/09 14:35:30;;;;;;;3.88;1.38;;;;;;;;;;5055389;28;20052;-73
2022/09/09 14:37:56;;;;;;;5.30;1.42;;;;;;;;;;5054476;28;20032;-74
2022/09/09 14:40:22;;;;;;;5.07;1.52;;;;;;;;;;5054427;28;20048;-74
2022/09/09 14:42:48;;;;;;;3.35;1.20;;;;;;;;;;5054533;28;20358;-76
2022/09/09 14:45:14;;;;;;;6.57;1.67;;;;;;;;;;5054349;28;20096;-75
2022/09/09 14:47:40;;;;;;;6.25;1.60;;;;;;;;;;5054563;28;20377;-76
2022/09/09 14:50:07;;;;;;;5.47;1.63;;;;;;;;;;5054243;28;20481;-75
2022/09/09 14:52:33;;;;;;;2.53;1.15;;;;;;;;;;5053894;28;20027;-74
2022/09/09 14:54:59;;;;;;;3.88;1.55;;;;;;;;;;5053766;28;20075;-74